Christos Charalambous

Recruteur en chef - APOEL
3 Déc 2028
Dimanche
Processus

Personnalité

Adaptabilité (13) Ambition (16) Controverse (19) Loyauté (17) Pression (20) Professionnalisme (1) Sportivité (3) Tempérament (5)

Profil

Style d'entraînement Démocratique
Diplôme Continental Pro
Détermination 5
Gestion des joueurs 10
Motivation 11
Discipline 6
Satisfaction professionnelle
83%
Fatigue
0%
Rôle Recruteur en chef
Salaire 38.2K p/s
Contrat 14.03.2029

Performance

Comportement Bon
Efficacité de l'entraînement
37%
Développement des joueurs
45%
Prévention des blessures
20%
Mise en place tactique
60%

Événements récents

A participé à une réunion de recrutement maintenant
A évalué un joueur maintenant
A évalué un joueur 7j
A participé à une réunion de recrutement 7j
A évalué un joueur 7j
A évalué un joueur 7j
A évalué un joueur 7j
A évalué un joueur 7j

Suivi en cours

354
Joueur Club Statut Capacité Confiance Observé Dernière observation Dernier vote
Ramiro Ruiz Rodríguez Atlético Tucumán Actif 124 / 128 40% 6 01.12.2028 -
Rodrigo Bogarín Barracas Central Actif 116 / 121 40% 9 01.12.2028 -
Antony Alonso Deportivo Riestra Actif 119 / 119 40% 4 01.12.2028 -
Mauro Valiente Estudiantes Actif 123 / 113 40% 7 30.11.2028 -
Fabrizio Sartori Independiente Rivadavia Actif 114 / 126 40% 5 30.11.2028 -
Theo Corbeanu Toronto FC Actif 120 / 129 40% 6 30.11.2028 -
Daniel Barrea Godoy Cruz Actif 120 / 124 40% 9 28.11.2028 -
Jonás Acevedo Instituto Actif 123 / 113 40% 7 28.11.2028 -
Facundo Farías Estudiantes Actif 119 / 134 40% 5 28.11.2028 -
Ignacio Ramírez Newell's Old Boys Actif 115 / 129 40% 12 24.11.2028 -
Clemente Montes Santiago Wanderers Actif 132 / 128 40% 4 24.11.2028 -
Jefry Zapata Aldosivi Actif 121 / 114 40% 6 23.11.2028 -
Alexander Díaz Deportivo Riestra Actif 118 / 129 40% 12 23.11.2028 -
Blas Armoa Gimnasia y Esgrima Actif 122 / 128 40% 4 23.11.2028 -
Erick Dolly Black Aces Actif 129 / 134 40% 5 22.11.2028 -
Francisco Valencia Junior Actif 122 / 123 40% 5 22.11.2028 -
Agustín Colazo Unión de Santa Fe Actif 121 / 129 40% 4 21.11.2028 -
Edwuin Cetré Estudiantes Actif 131 / 117 40% 4 21.11.2028 -
Asier Villalibre Racing Santander Actif 133 / 135 40% 1 21.11.2028 -
Ignacio Russo Tigre Actif 129 / 126 40% 11 20.11.2028 -
Adalberto Peñaranda Deportivo Tachira Actif 118 / 119 40% 10 16.11.2028 -
Fabri Vitória Actif 130 / 116 40% 5 16.11.2028 -
Tomás Verón Lupi Grasshopper Actif 127 / 130 40% 1 15.11.2028 -
Davis Keillor-Dunn Bolton Wanderers Actif 122 / 121 40% 1 13.11.2028 -
Rodrigo Auzmendi Banfield Actif 135 / 128 40% 4 08.11.2028 -
Nahuel Ulariaga Najran Actif 141 / 123 40% 3 08.11.2028 -
Jacob Brown Barrow AFC Actif 129 / 128 40% 1 08.11.2028 -
Bruno Barticciotto Talleres Actif 139 / 124 40% 9 07.11.2028 -
Juan Miritello Defensa y Justicia Actif 111 / 114 40% 3 06.11.2028 -
Gonzalo Plata Nacional Actif 151 / 143 40% 2 31.10.2028 -
Uriel Antuna Dinamo Moscow Actif 143 / 138 40% 2 31.10.2028 -
Santiago Rodríguez Gimnasia y Esgrima Actif 113 / 111 40% 9 30.10.2028 -
Mohammad Mohebi Hajduk Split Actif 127 / 131 40% 1 30.10.2028 -
Tobías Cervera Gimnasia y Esgrima Actif 111 / 114 40% 4 29.10.2028 -
Tomás Chancalay New England Revolution Actif 135 / 128 40% 3 29.10.2028 -
Adolfo Gaich Estudiantes Actif 110 / 121 40% 6 26.10.2028 -
Adam Idah Swansea City Actif 138 / 128 40% 1 26.10.2028 -
Yair González Argentinos Juniors Actif 122 / 114 40% 1 15.10.2028 -
Yota Komi Kashiwa Reysol Actif 112 / 124 40% 6 11.10.2028 -
Mateo Bajamich Atlético Tucumán Actif 131 / 127 40% 6 10.10.2028 -
Mateo Coronel Atlético Tucumán Actif 128 / 117 40% 2 04.10.2028 -
Lucas Ríos Koper Actif 109 / 114 40% 1 01.10.2028 -
Alexis Cuello San Lorenzo Actif 118 / 133 40% 8 23.09.2028 -
Marcelo Torres Gimnasia La Plata Actif 111 / 125 40% 2 08.09.2028 -
Yoshan Valois Lanús Actif 110 / 117 40% 1 30.08.2028 -
Moses Cobnan Krasnodar Actif 126 / 125 40% 2 26.08.2028 -
Nicolás Cordero Aldosivi Actif 131 / 116 40% 1 25.08.2028 -
Dimitris Theodorou Anorthosis Refusé 98 / 106 69% 1 21.08.2028 Refuser
Rody Junior Effaghe Aris Actif 120 / 118 40% 1 21.08.2028 -
Emanuele Schimmenti Potenza Actif 118 / 117 40% 3 20.08.2028 -
Nicola Rauti Vicenza Actif 125 / 122 40% 5 20.08.2028 -
Juan Cejas Ethnikos Achnas Actif 118 / 115 40% 1 20.08.2028 -
Vanja Vlahović Spezia Actif 138 / 128 40% 1 19.08.2028 -
Giuseppe Di Serio Spezia Actif 124 / 125 40% 2 18.08.2028 -
Konan N'Dri Lecce Actif 140 / 140 40% 1 18.08.2028 -
Kevin Martins Monza Actif 126 / 122 40% 1 18.08.2028 -
Luca Vido Union Brescia Actif 122 / 120 40% 5 16.08.2028 -
Andrea Ferraris Pescara Actif 124 / 126 40% 1 16.08.2028 -
Agustín Medina Lanús Actif 126 / 123 40% 2 15.08.2028 -
Tobías Ramírez River Plate Actif 128 / 128 40% 3 15.08.2028 -
Jérémy Le Douaron Palermo Actif 127 / 127 40% 7 15.08.2028 -
Enzo Cabrera AE Kition Actif 122 / 126 40% 3 14.08.2028 -
Nicolás Andereggen Ethnikos Achnas Actif 124 / 123 40% 3 13.08.2028 -
Emanuele Pecorino Catanzaro Actif 125 / 120 40% 1 13.08.2028 -
Ole Romeny Oxford United Actif 121 / 119 40% 7 08.08.2028 -
Facundo Lescano Salernitana Actif 126 / 117 40% 1 08.08.2028 -
Camillo Tavernelli Arezzo Actif 124 / 118 40% 15 07.08.2028 -
Stephen Humphrys Bradford City Actif 117 / 112 40% 7 07.08.2028 -
Christian Saydee Wigan Athletic Actif 122 / 117 40% 13 06.08.2028 -
Sam Nombe Milton Keynes Dons Actif 116 / 116 40% 9 06.08.2028 -
Liam Cullen Swansea City Actif 122 / 121 40% 6 06.08.2028 -
Martim Cunha Porto Actif 116 / 123 40% 4 05.08.2028 -
Aaron Collins Milton Keynes Dons Actif 127 / 120 40% 11 05.08.2028 -
Jan Cedilnik Chikhura Actif 80 / 86 40% 3 05.08.2028 -
Kyle Wootton Stockport County Actif 127 / 130 40% 11 05.08.2028 -
Sam Smith Wrexham Actif 123 / 124 40% 4 05.08.2028 -
Tomás Valentukonis Najran Actif 90 / 105 40% 1 05.08.2028 -
Evidence Makgopa Orlando Pirates Actif 125 / 127 40% 4 03.08.2028 -
Gabriele Gori Ascoli Actif 122 / 114 40% 7 02.08.2028 -
Marco Tumminello Benevento Actif 121 / 120 40% 8 02.08.2028 -
Edoardo Soleri Bari Actif 132 / 120 40% 3 31.07.2028 -
Jalen Blesa Oliveirense Actif 133 / 124 40% 5 31.07.2028 -
Sam Dalby Bolton Wanderers Actif 114 / 120 40% 1 31.07.2028 -
Kevin Piscopo Juve Stabia Actif 125 / 119 40% 1 30.07.2028 -
Arthur Sales Maritzburg United Actif 121 / 127 40% 5 29.07.2028 -
Rayan Kolli Queens Park Rangers Actif 116 / 121 40% 5 28.07.2028 -
Francisco Arias Gimnasia y Esgrima Actif 80 / 97 40% 1 27.07.2028 -
Giacomo Sandrolini Carpi Actif 89 / 101 40% 1 27.07.2028 -
Mateo Faure BATE Actif 84 / 102 40% 1 27.07.2028 -
Mehdi Noorafkan Padideh Actif 103 / 104 40% 2 26.07.2028 -
Stavros Psyropoulos Kasimpasa Actif 86 / 93 40% 1 26.07.2028 -
Kwesi Sorotu Badori Berekum Chelsea Actif 93 / 115 40% 2 24.07.2028 -
Pedro Marques Apollon Actif 125 / 115 40% 3 22.07.2028 -
Norman Bassette Coventry City Actif 117 / 127 40% 3 21.07.2028 -
Alejandro Cantero Jomo Cosmos Actif 122 / 124 40% 2 18.07.2028 -
Matteo Rover Reggiana Actif 123 / 128 40% 7 17.07.2028 -
Alfie Cresswell Leeds United Actif 99 / 113 40% 1 17.07.2028 -
Jan Bürger Northampton Town Actif 123 / 125 40% 3 12.07.2028 -
Noah Markmann Esbjerg Actif 115 / 132 40% 1 12.07.2028 -
Edgar López Toluca Actif 131 / 124 40% 2 11.07.2028 -
Etiosa Ighodaro Kaizer Chiefs Actif 122 / 122 40% 4 09.07.2028 -
Gustavo Santos Krasnodar Actif 115 / 132 40% 8 08.07.2028 -
Declan Frith Peterborough United Actif 114 / 119 40% 1 08.07.2028 -
Ethan Erhahon Cheltenham Town Actif 119 / 120 40% 1 08.07.2028 -
Jack Taylor Doncaster Rovers Actif 140 / 137 40% 2 04.07.2028 -
Kane Wilson Milton Keynes Dons Actif 121 / 122 40% 1 04.07.2028 -
Pol Valentín Cambridge United Actif 125 / 119 40% 1 04.07.2028 -
Luther Singh AEL Actif 146 / 130 40% 3 02.07.2028 -
Rúben Rodrigues Bolton Wanderers Actif 121 / 126 40% 2 02.07.2028 -
Yan Valery Sheffield Wednesday Actif 132 / 123 40% 1 02.07.2028 -
Luke Molyneux Doncaster Rovers Actif 116 / 123 40% 3 01.07.2028 -
Tom Davies Barnet Actif 134 / 135 40% 2 01.07.2028 -
Ben Wiles Milton Keynes Dons Actif 125 / 120 40% 1 30.06.2028 -
Ryan McAidoo Oldham Athletic Actif 130 / 125 40% 1 30.06.2028 -
Simone Mazzocchi Cosenza Actif 128 / 119 40% 3 28.06.2028 -
Siyabonga Mabena Bidvest Wits Actif 128 / 135 40% 2 28.06.2028 -
Jorge Cabezas Hurtado Watford Actif 126 / 121 40% 5 24.06.2028 -
Mohamadou Kanté Crawley Town Actif 125 / 121 40% 2 19.06.2028 -
Thierry Gale Swindon Town Actif 118 / 126 40% 1 19.06.2028 -
Timur Suleimanov Nizhniy Novgorod Actif 120 / 116 40% 7 17.06.2028 -
Miro Arsenal Tula Actif 110 / 120 40% 7 11.06.2028 -
Leandro Antunes Al-Riyadh Actif 132 / 126 40% 14 07.06.2028 -
Joel Asoro Apollon Actif 122 / 129 40% 7 05.06.2028 -
Josh Nichols Oldham Athletic Actif 124 / 125 40% 6 04.06.2028 -
Luca Moro Padova Refusé 122 / 122 40% 4 04.06.2028 -
Gennaro Tutino Sampdoria Actif 123 / 128 40% 2 04.06.2028 -
Ahmed Zaki Masr El Makasa Actif 87 / 93 40% 1 04.06.2028 -
Charlie Kelman Barnsley Actif 123 / 119 40% 5 03.06.2028 -
Giuseppe Panico Foggia Actif 116 / 119 40% 5 03.06.2028 -
Walid Cheddira Avellino Actif 128 / 130 40% 2 01.06.2028 -
Ettore Gliozzi Mantova Actif 127 / 124 40% 2 29.05.2028 -
Ryan Kavuma-McQueen Accrington Stanley Actif 114 / 128 40% 4 28.05.2028 -
Johnny Kenny Preston Actif 122 / 118 40% 4 27.05.2028 -
Simone Suppa Virtus Verona Actif 85 / 91 40% 2 26.05.2028 -
Carlton Morris Derby County Actif 119 / 120 40% 2 26.05.2028 -
Augusto Bando Ascoli Actif 103 / 114 40% 2 26.05.2028 -
Federico Matarán Giana Erminio Actif 105 / 107 40% 4 25.05.2028 -
Musa Danjuma Umraniyespor Actif 100 / 108 40% 2 23.05.2028 -
Olivier Leroux Mouscron Actif 102 / 112 40% 5 22.05.2028 -
Sam Szmodics Ipswich Town Refusé 129 / 131 40% 8 18.05.2028 -
Daniel Banjaqui Benfica Refusé 118 / 123 40% 4 17.05.2028 Refuser
Andrey Ivlev Nizhniy Novgorod Actif 106 / 118 40% 3 17.05.2028 -
Dale Taylor Blackpool Actif 118 / 116 40% 4 14.05.2028 -
Kiani Inge Groningen Actif 106 / 124 40% 5 13.05.2028 -
Luca Williams-Barnett Walsall Actif 123 / 129 40% 7 06.05.2028 -
Celías Ingenthron Platense Refusé 127 / 118 40% 2 05.05.2028 -
Vyacheslav Grulev Nizhniy Novgorod Actif 127 / 108 40% 7 05.05.2028 -
Elijah Adebayo Luton Town Actif 130 / 126 40% 2 29.04.2028 -
Kleis Bozhanaj Modena Actif 126 / 123 40% 1 25.04.2028 -
Jajá Pafos Actif 126 / 115 40% 3 18.04.2028 -
Ali Youssef Apollon Actif 133 / 122 40% 8 08.04.2028 -
Josh Stokes Bristol City Actif 121 / 118 40% 1 07.04.2028 -
Riquelme Thompson-Jones Accrington Stanley Actif 106 / 117 40% 2 05.04.2028 -
Lucas Nicol Mjondalen Actif 70 / 86 40% 1 26.03.2028 -
Milad Nekounam Gostaresh Foulad Actif 90 / 85 40% 2 25.03.2028 -
Othniël Raterink Cagliari Actif 122 / 128 40% 1 25.03.2028 -
Nicolò Moranduzzo Renate Actif 86 / 96 40% 1 24.03.2028 -
Jon Esenga IF Elfsborg Actif 108 / 101 40% 1 24.03.2028 -
Makar Vysochenko Spartak Moscow Actif 98 / 96 40% 1 24.03.2028 -
Ollie Watkins Al-Hilal Actif 151 / 145 40% 3 18.03.2028 -
Nikolay Komlichenko Lokomotiv Moscow Actif 119 / 126 40% 3 16.03.2028 -
Victor Hernandez Santa Fe Actif 110 / 124 40% 6 15.03.2028 -
Amine Boukamir Charleroi Actif 102 / 104 40% 1 15.03.2028 -
Bence Szakos Aris Actif 94 / 102 40% 1 14.03.2028 -
Matvey Bardachev Zenit Actif 97 / 118 40% 1 13.03.2028 -
Bernardo Lima Porto Actif 103 / 113 40% 3 10.03.2028 -
Yakou Meïté Damac Actif 115 / 114 40% 1 09.03.2028 -
Haitham Asiri Hajer Actif 116 / 113 40% 1 09.03.2028 -
Mees Rijks Bristol Rovers Actif 121 / 114 40% 4 25.02.2028 -
Callum Lang Preston Actif 117 / 126 40% 1 25.02.2028 -
Shota Shekiladze Dila Actif 119 / 112 40% 4 18.02.2028 -
Mikhail Ignatov Sochi Actif 119 / 118 40% 2 15.02.2028 -
Khama Mabunda Platinum Stars Actif 75 / 92 40% 1 10.02.2028 -
Tobiáš Pališčák Zlin Actif 101 / 102 40% 1 10.02.2028 -
Chinedu Geoffrey Krylya Sovetov Actif 112 / 125 40% 3 08.02.2028 -
Elton Acolatse Pafos Actif 129 / 113 40% 1 02.02.2028 -
Zane Albarus Shrewsbury Town Actif 93 / 110 40% 2 01.02.2028 -
Colin Guske Orlando City Actif 89 / 105 40% 3 31.01.2028 -
Matias Siltanen Malmo FF Actif 133 / 121 40% 3 31.01.2028 -
Artem Nosachev Spartak Moscow Actif 75 / 78 40% 1 31.01.2028 -
Tomás Fernández Aldosivi Actif 118 / 110 40% 2 29.01.2028 -
Nazareno Funez Defensa y Justicia Actif 125 / 118 40% 1 29.01.2028 -
Jhonatan Candia Barracas Central Actif 115 / 118 40% 5 26.01.2028 -
Oscar Steinke Brånby Hammarby Actif 101 / 115 40% 1 26.01.2028 -
Tyler Fletcher Rotherham United Actif 108 / 122 40% 1 25.01.2028 -
Diego Vargas Universidad de Concepcion Actif 96 / 100 40% 1 21.01.2028 -
José Barreto Quilmes Actif 115 / 121 40% 4 17.01.2028 -
Brayan Gil Baltika Actif 123 / 127 40% 6 16.01.2028 -
Enzo Copetti Rosario Central Actif 120 / 127 40% 2 07.01.2028 -
Rodrigo González Mitre Actif 124 / 118 40% 6 13.12.2027 -
Juan Sebastián Herrera Deportivo La Guaira Actif 123 / 120 40% 4 12.12.2027 -
Alex Luna Instituto Actif 127 / 131 40% 1 12.12.2027 -
Alejo Dramisino Atlanta Actif 123 / 119 40% 7 07.12.2027 -
Santiago González Tigre Actif 120 / 123 40% 3 06.12.2027 -
Guido Mainero Platense Actif 120 / 115 40% 1 02.12.2027 -
Imran Oulad Omar Dinamo Batumi Actif 117 / 127 40% 9 30.11.2027 -
Nicolás Retamar Ferro Carril Oeste Actif 109 / 117 40% 7 30.11.2027 -
Manuel Mónaco Sarmiento Actif 116 / 120 40% 5 29.11.2027 -
Gastón Togni Defensa y Justicia Actif 125 / 125 40% 2 28.11.2027 -
Emanuel Coronel Rosario Central Actif 135 / 117 40% 1 27.11.2027 -
Brian Farioli Estudiantes Actif 118 / 114 40% 6 26.11.2027 -
Jaminton Campaz Rosario Central Actif 129 / 130 40% 1 26.11.2027 -
Oscar Garrido Mitre Actif 126 / 117 40% 3 25.11.2027 -
Bruno Leyes Godoy Cruz Actif 121 / 120 40% 6 24.11.2027 -
Jeremías Merlo Gimnasia La Plata Actif 120 / 122 40% 1 22.11.2027 -
Matías Rosales Sarmiento Actif 106 / 120 40% 2 20.11.2027 -
Joaquín Gho Argentinos Juniors Actif 138 / 117 40% 4 20.11.2027 -
Nicolás Laméndola Atlético Tucumán Actif 126 / 116 40% 1 20.11.2027 -
Iñaki Larthirigoyen San Telmo Actif 123 / 117 40% 7 18.11.2027 -
Enzo Hoyos Ferro Carril Oeste Actif 123 / 122 40% 2 18.11.2027 -
Tiago Palacios Estudiantes Actif 133 / 138 40% 2 18.11.2027 -
Giorgi Arabidze Torpedo Kutaisi Actif 127 / 120 40% 3 14.11.2027 -
Sebastián Medina Tigre Actif 118 / 120 40% 1 09.11.2027 -
Santiago Rosales Mitre Actif 127 / 113 40% 2 08.11.2027 -
Marcelino Moreno Lanús Actif 126 / 121 40% 2 08.11.2027 -
Manuel Duarte Barracas Central Actif 128 / 117 40% 2 06.11.2027 -
Damián Adín San Miguel Actif 126 / 112 40% 1 06.11.2027 -
Franco Vedoya Central Norte Actif 105 / 114 40% 4 01.11.2027 -
Franco Díaz Temperley Actif 122 / 124 40% 2 24.10.2027 -
Delfor Minervino Estudiantes Actif 116 / 113 40% 1 22.10.2027 -
Martín Campos Ferro Carril Oeste Actif 113 / 109 40% 1 18.10.2027 -
Lautaro Disanto Defensores Unidos Actif 121 / 110 40% 3 15.10.2027 -
Sebastián Jaurena San Martín SJ Actif 109 / 111 40% 3 14.10.2027 -
Gastón Moreyra Almirante Brown Actif 111 / 120 40% 2 13.10.2027 -
Gianluca Pugliese Güemes Actif 105 / 110 40% 3 04.10.2027 -
Fernando Bersano Madryn Actif 110 / 121 40% 1 04.10.2027 -
Horacio Tijanovich Central Córdoba SdE Actif 105 / 111 40% 1 02.10.2027 -
Mohamed Moussa Koïta Mathare United Actif 109 / 101 40% 1 23.09.2027 -
Patricio Moyano Defensores Actif 107 / 110 40% 1 17.09.2027 -
Santiago Sala Güemes Actif 105 / 110 40% 1 16.09.2027 -
Facundo Nadalín San Martín SJ Actif 114 / 109 40% 1 16.09.2027 -
Leandro Allende Colón Actif 103 / 122 40% 1 14.09.2027 -
Matías Canedo Rampla Juniors Actif 97 / 90 40% 2 12.09.2027 -
Jonathan Cañete Portuguesa Actif 122 / 114 40% 1 12.09.2027 -
Onuorah Onyedika Kun Khalifat Actif 88 / 81 40% 1 12.09.2027 -
Chibueze Oputa Rangers International Actif 78 / 91 40% 3 09.09.2027 -
Jonny Shore New York City Actif 93 / 113 40% 1 09.09.2027 -
Yury Oyarzo Racing Actif 92 / 97 40% 1 06.09.2027 -
Dato Chakvetadze Zugdidi Actif 90 / 87 40% 1 04.09.2027 -
Francisco Machis Llaneros Actif 73 / 85 40% 2 01.09.2027 -
Nazareno Roselli Defensa y Justicia Actif 114 / 111 40% 1 01.09.2027 -
Issa Yusuf Shooting Stars Actif 89 / 83 40% 2 30.08.2027 -
Gideon Manaseh Ikorodu City Actif 91 / 102 40% 1 29.08.2027 -
Onyeuche Ujunwa Ikorodu City Actif 78 / 88 40% 1 26.08.2027 -
David Damboama El-Kanemi Warriors Actif 100 / 84 40% 1 26.08.2027 -
Bruno Almeida AEL Actif 121 / 115 40% 4 24.08.2027 -
Lucan Louw US Bougouni Actif 89 / 90 40% 1 13.08.2027 -
Adam Boufandar Pro Vercelli Actif 91 / 98 40% 1 12.08.2027 -
Idris El Mizouni Leyton Orient Actif 117 / 124 40% 1 08.08.2027 -
Ilias Bronkhorst Huddersfield Town Actif 116 / 121 40% 1 06.08.2027 -
Joseph Hungbo Wigan Athletic Actif 118 / 119 40% 1 06.08.2027 -
Ar'jany Martha Rotherham United Actif 109 / 112 40% 1 05.08.2027 -
Sondre Tronstad Blackburn Rovers Actif 118 / 125 40% 3 03.08.2027 -
Perry Ng Cardiff City Actif 115 / 120 40% 1 03.08.2027 -
Leandro Martins Benfica Actif 95 / 107 40% 1 03.08.2027 -
Maldini Kacurri Grimsby Town Actif 88 / 99 40% 1 03.08.2027 -
Che Adams Torino Actif 151 / 137 40% 1 30.07.2027 -
Stiven Shpendi Empoli Actif 131 / 120 40% 1 30.07.2027 -
Leighton Clarkson Blackpool Actif 114 / 127 40% 1 29.07.2027 -
Tommaso Cecotti Carpi Actif 96 / 95 40% 1 29.07.2027 -
Andre Dozzell Bradford City Actif 119 / 118 40% 1 24.07.2027 -
Tyreece Campbell Charlton Athletic Actif 119 / 118 40% 1 23.07.2027 -
Dylan Levitt Leyton Orient Actif 117 / 121 40% 1 21.07.2027 -
Josh Murphy Portsmouth Actif 122 / 130 40% 1 20.07.2027 -
Ethan Williams Peterborough United Actif 119 / 126 40% 1 19.07.2027 -
Matthew Garbett Peterborough United Actif 116 / 117 40% 2 18.07.2027 -
Jack Diamond Stockport County Actif 115 / 124 40% 1 16.07.2027 -
Aaron Morley Wycombe Wanderers Actif 115 / 117 40% 1 15.07.2027 -
Lucas Mbamba Westerlo Actif 91 / 96 40% 1 10.07.2027 -
Aldo Florenzi Cosenza Actif 127 / 116 40% 1 06.07.2027 -
Sam Lammers PSV Actif 126 / 123 40% 1 01.06.2027 -
Egas Cacintura Akhmat Grozny Actif 134 / 119 40% 4 29.05.2027 -
Konstantinos Balogiannis Apollon Actif 114 / 115 40% 1 29.05.2027 -
César Montes Lokomotiv Moscow Actif 124 / 140 40% 1 28.05.2027 -
Tormena Krasnodar Actif 128 / 135 40% 1 23.05.2027 -
Wilfried Kanga Al-Fateh Actif 108 / 117 40% 3 17.05.2027 -
Gédéon Kalulu Aris Actif 115 / 123 40% 1 13.05.2027 -
Rémi Oudin AEL Actif 108 / 115 40% 1 13.05.2027 -
Ivan Sergeev Dinamo Moscow Actif 115 / 127 40% 3 10.05.2027 -
Sérgio Conceição AEL Actif 107 / 114 40% 1 09.05.2027 -
Florin Tănase Omonoia Actif 125 / 120 40% 2 05.05.2027 -
Jacques Siwe Rubin Actif 127 / 115 40% 5 03.05.2027 -
Nathan Gassama Baltika Actif 130 / 124 40% 1 28.04.2027 -
Valentin Costache Noah Actif 117 / 111 40% 1 25.04.2027 -
Tio Cipot NK Maribor Actif 134 / 113 40% 3 22.04.2027 -
Jack Hendry Al-Ettifaq Actif 117 / 129 40% 2 22.04.2027 -
Maksim Samorodov Akhmat Grozny Actif 130 / 124 40% 3 19.04.2027 -
Peter Olayinka Al-Wehda Actif 119 / 120 40% 6 16.04.2027 -
Darwin González Al-Wehda Actif 101 / 113 40% 5 14.04.2027 -
Thom van Bergen Groningen Actif 122 / 125 40% 1 10.04.2027 -
Carlos Vinícius Grêmio Actif 152 / 125 40% 1 06.04.2027 -
Arthur Gomes Dinamo Moscow Actif 133 / 132 40% 4 30.03.2027 -
Marat Bokoev Akron Actif 128 / 121 40% 1 30.03.2027 -
Loreintz Rosier Al-Hazem Actif 134 / 123 40% 1 30.03.2027 -
Tin Jedvaj Al-Shabab Actif 108 / 121 40% 1 28.03.2027 -
Leo Goglichidze Rodina Actif 100 / 104 40% 1 25.03.2027 -
Július Szӧke AEL Actif 108 / 111 40% 1 23.03.2027 -
Darko Todorović Fakel Actif 105 / 106 40% 1 23.03.2027 -
Iker Pozo Rodina Actif 109 / 114 40% 1 11.03.2027 -
Nikita Krivtsov Krasnodar Actif 142 / 139 40% 2 10.03.2027 -
Dardan Shabanhaxhaj Rubin Actif 106 / 121 40% 1 06.03.2027 -
Mamadou Sylla Al-Riyadh Actif 111 / 130 40% 1 24.02.2027 -
Tamerlan Musaev CSKA Moscow Actif 106 / 123 40% 1 18.02.2027 -
Denzel Jubitana Neftchi Actif 121 / 119 40% 1 14.02.2027 -
Moussa Koné Al-Ra'ed Actif 107 / 111 40% 1 25.01.2027 -
François Kamano Sochi Actif 104 / 117 40% 1 13.01.2027 -
Khalid Al-Ghannam Al-Ettifaq Actif 125 / 108 40% 2 29.12.2026 -
Luiz Araújo Flamengo Actif 133 / 138 40% 1 27.12.2026 -
Ivan Oblyakov CSKA Moscow Actif 128 / 135 40% 1 27.12.2026 -
Konstantin Kuchaev Rostov Actif 101 / 126 40% 2 26.12.2026 -
Matheus Silva Qarabag Actif 119 / 117 40% 4 24.12.2026 -
Carel Eiting Omonoia Actif 111 / 114 40% 4 23.12.2026 -
Pedro Bicalho Qarabag Actif 118 / 130 40% 2 20.12.2026 -
Kady Borges Qarabag Actif 128 / 130 40% 1 11.12.2026 -
Nahuel Arias San Lorenzo Actif 113 / 123 40% 1 09.12.2026 -
Eldar Ćivić Baltika Actif 109 / 124 40% 3 07.12.2026 -
Denis Makarov Krylya Sovetov Actif 128 / 125 40% 3 05.12.2026 -
Óscar Al-Diriyah Actif 117 / 124 40% 3 04.12.2026 -
Maxim Radchenko Rostov Actif 68 / 84 40% 1 03.12.2026 -
Cheveyo Tsawa Club Brugge Actif 107 / 120 40% 1 03.12.2026 -
Joe Rothwell Sheffield United Actif 114 / 129 40% 3 01.12.2026 -
Marko Janković Qarabag Actif 122 / 121 40% 2 28.11.2026 -
Douglas Augusto Krasnodar Actif 135 / 137 40% 3 24.11.2026 -
Nejc Brekalo NK Domzale Actif 110 / 96 40% 1 24.11.2026 -
Mariano Bracamonte Deportivo Riestra Actif 136 / 113 40% 2 21.11.2026 -
Ivan Oleinikov Krylya Sovetov Actif 107 / 123 40% 2 21.11.2026 -
Ilja Vakhania Krasnodar Actif 112 / 112 40% 2 19.11.2026 -
Aschraf El Mahdioui Al-Taawoun Actif 141 / 129 40% 1 19.11.2026 -
Kein Sato FC Tokyo Actif 124 / 138 40% 3 17.11.2026 -
Veldin Hodža Rubin Actif 104 / 127 40% 2 15.11.2026 -
Lechi Sadulaev Akhmat Grozny Actif 109 / 121 40% 1 10.11.2026 -
Henrik Bjørdal Viking Actif 135 / 124 40% 5 09.11.2026 -
Matthias Seidl Rapid Wien Actif 131 / 129 40% 1 07.11.2026 -
Pêpê Pafos Actif 118 / 123 40% 1 05.11.2026 -
Lucas Souto Defensa y Justicia Actif 121 / 118 40% 3 26.10.2026 -
Andrei Cordea CFR Cluj Actif 136 / 110 40% 1 24.10.2026 -
Lucas Vera Lokomotiv Moscow Actif 103 / 117 40% 1 22.10.2026 -
Franco Cristaldo Talleres Actif 123 / 117 40% 2 15.10.2026 -
Rafael Santos Borré River Plate Actif 120 / 120 40% 1 11.10.2026 -
Kevin Pina Krasnodar Actif 137 / 117 40% 1 10.10.2026 -
Sebastian Mailat Botosani Actif 102 / 124 40% 2 04.10.2026 -
Luis Chávez Dinamo Moscow Actif 150 / 129 40% 1 03.10.2026 -
Alexis Steimbach Gimnasia La Plata Actif 101 / 118 40% 1 29.09.2026 -
Matías Pellegrini Vélez Actif 112 / 114 40% 1 21.09.2026 -
Elvin Cəfərquliyev Qarabag Actif 117 / 116 40% 2 10.09.2026 -
Tomás Galván River Plate Actif 126 / 117 40% 2 06.09.2026 -
Yan Eteki Noah Actif 122 / 120 40% 1 06.09.2026 -
Jaïro Riedewald Sheffield United Actif 128 / 118 40% 1 04.09.2026 -
Bendegúz Bolla Rapid Wien Actif 124 / 130 40% 1 01.09.2026 -
Salvatore Elia Cremonese Actif 123 / 125 40% 1 01.09.2026 -
Gady Beyuku Blackburn Rovers Actif 115 / 121 40% 1 01.09.2026 -
Bade Aluko Leicester City Actif 115 / 113 40% 1 01.09.2026 -
Joaquín Silva Santiago Wanderers Actif 74 / 84 40% 1 10.08.2026 -
Florentino Luís Ipswich Town Actif 142 / 143 40% 1 01.08.2026 -